Time;durP1;ratioP1;P1;durP2;ratioP2;P2;SDS_P1;SDS_P2;PMS_P1;PMS_P2;Temp;Humidity;BMP_temperature;BMP_pressure;BME280_temperature;BME280_humidity;BME280_pressure;Samples;Min_cycle;Max_cycle;Signal;HPM_P1;HPM_P2
2022/11/01 00:01:20;;;;;;;75.50;39.30;;;;;;;8.12;100.00;96784.56;5048306;28;20045;-68
2022/11/01 00:03:45;;;;;;;62.40;36.92;;;;;;;8.11;100.00;96777.50;5053966;28;20057;-68
2022/11/01 00:06:11;;;;;;;136.35;40.33;;;;;;;7.95;100.00;96769.28;5041775;28;20840;-67
2022/11/01 00:08:36;;;;;;;94.80;40.35;;;;;;;7.72;100.00;96773.69;5046162;28;20076;-67
2022/11/01 00:11:07;;;;;;;58.30;35.38;;;;;;;7.79;100.00;96768.44;5043859;28;20033;-65
2022/11/01 00:13:33;;;;;;;68.15;35.95;;;;;;;7.74;100.00;96760.50;5042946;28;20041;-67
2022/11/01 00:15:58;;;;;;;72.72;39.35;;;;;;;7.76;100.00;96760.94;5042123;28;20132;-67
2022/11/01 00:18:24;;;;;;;219.13;45.63;;;;;;;7.09;100.00;96755.88;5038242;28;20041;-68
2022/11/01 00:20:50;;;;;;;72.78;39.95;;;;;;;7.14;100.00;96763.81;5043702;28;20052;-70
2022/11/01 00:23:15;;;;;;;65.65;37.80;;;;;;;7.29;100.00;96770.47;5039111;28;20227;-67
2022/11/01 00:25:40;;;;;;;66.18;38.47;;;;;;;7.47;100.00;96765.56;5044088;28;20482;-70
2022/11/01 00:28:06;;;;;;;148.23;41.92;;;;;;;7.61;100.00;96774.16;5035307;28;20052;-67
2022/11/01 00:30:34;;;;;;;83.43;36.38;;;;;;;7.64;100.00;96780.88;5038371;28;20397;-70
2022/11/01 00:33:00;;;;;;;55.67;31.60;;;;;;;7.65;100.00;96788.72;5041615;28;20041;-67
2022/11/01 00:35:25;;;;;;;182.95;42.42;;;;;;;7.57;100.00;96780.66;5035149;28;20402;-68
2022/11/01 00:37:50;;;;;;;124.80;40.28;;;;;;;7.44;100.00;96775.22;5041920;28;20430;-69
2022/11/01 00:40:16;;;;;;;130.05;39.33;;;;;;;7.24;100.00;96785.16;5037424;28;20037;-70
2022/11/01 00:42:41;;;;;;;219.82;48.38;;;;;;;7.10;100.00;96775.75;5037964;28;20441;-68
2022/11/01 00:45:07;;;;;;;161.60;43.80;;;;;;;7.04;100.00;96784.16;5038277;28;20037;-69
2022/11/01 00:47:32;;;;;;;70.25;35.97;;;;;;;7.05;100.00;96784.94;5042115;28;20084;-68
2022/11/01 00:49:58;;;;;;;66.45;36.83;;;;;;;7.12;100.00;96776.97;5043020;28;20136;-68
2022/11/01 00:52:23;;;;;;;89.57;39.67;;;;;;;7.21;100.00;96783.09;5040347;28;20041;-67
2022/11/01 00:54:48;;;;;;;60.33;37.10;;;;;;;7.39;100.00;96794.53;5044795;28;20120;-67
2022/11/01 00:57:14;;;;;;;64.53;34.85;;;;;;;7.60;100.00;96777.25;5036860;28;20044;-66
2022/11/01 00:59:39;;;;;;;66.47;33.58;;;;;;;7.72;100.00;96784.59;5041457;28;20122;-67
2022/11/01 01:02:04;;;;;;;51.67;33.25;;;;;;;7.75;100.00;96783.91;5040786;28;20045;-66
2022/11/01 01:04:30;;;;;;;53.17;32.00;;;;;;;7.76;100.00;96780.84;5043035;28;20044;-68
2022/11/01 01:06:56;;;;;;;63.53;32.33;;;;;;;7.76;100.00;96780.84;5042954;28;20041;-67
2022/11/01 01:09:21;;;;;;;51.95;31.00;;;;;;;7.76;100.00;96788.19;5038322;28;20876;-68
2022/11/01 01:11:47;;;;;;;52.35;31.38;;;;;;;7.79;100.00;96780.13;5037693;28;20106;-68
2022/11/01 01:14:12;;;;;;;50.42;29.95;;;;;;;7.50;100.00;96788.63;5038330;28;20040;-68
2022/11/01 01:16:37;;;;;;;58.63;32.05;;;;;;;7.56;100.00;96798.13;5041897;28;20049;-69
2022/11/01 01:19:03;;;;;;;40.10;27.95;;;;;;;7.65;100.00;96794.16;5038709;28;20041;-67
2022/11/01 01:21:28;;;;;;;42.50;29.08;;;;;;;7.74;100.00;96790.47;5041720;28;20494;-68
2022/11/01 01:23:53;;;;;;;78.30;30.90;;;;;;;7.50;100.00;96789.41;5042636;28;20076;-68
2022/11/01 01:26:19;;;;;;;63.80;32.10;;;;;;;7.37;100.00;96799.53;5035215;28;20053;-69
2022/11/01 01:28:45;;;;;;;51.35;30.58;;;;;;;7.49;100.00;96787.03;5042685;28;20065;-69
2022/11/01 01:31:11;;;;;;;52.03;29.02;;;;;;;7.63;100.00;96782.00;5037764;28;20098;-68
2022/11/01 01:33:37;;;;;;;46.60;29.52;;;;;;;7.71;100.00;96775.63;5042107;28;20414;-68
2022/11/01 01:36:04;;;;;;;62.47;31.75;;;;;;;7.86;100.00;96776.81;5035615;28;20052;-67
2022/11/01 01:38:30;;;;;;;93.88;34.42;;;;;;;7.44;100.00;96771.72;5040778;28;20052;-68
2022/11/01 01:41:54;;;;;;;192.15;40.40;;;;;;;7.22;100.00;96770.25;5041965;28;20037;-69
2022/11/01 01:43:43;;;;;;;122.55;38.97;;;;;;;7.18;100.00;96780.25;5041604;28;20036;-68
2022/11/01 01:46:09;;;;;;;145.80;40.85;;;;;;;7.19;100.00;96779.94;5037007;28;20056;-67
2022/11/01 01:48:37;;;;;;;62.20;34.00;;;;;;;7.33;100.00;96773.31;5042029;28;20045;-69
2022/11/01 01:51:08;;;;;;;218.57;41.20;;;;;;;7.37;100.00;96779.69;5037988;28;20055;-66
2022/11/01 01:53:39;;;;;;;90.82;36.47;;;;;;;7.38;100.00;96773.09;5042498;28;20098;-68
2022/11/01 01:56:11;;;;;;;176.20;40.58;;;;;;;7.34;100.00;96772.97;5036733;28;20045;-66
2022/11/01 01:58:41;;;;;;;304.27;47.22;;;;;;;7.26;100.00;96768.47;5042056;28;20118;-69
2022/11/01 02:01:07;;;;;;;95.50;38.45;;;;;;;7.37;100.00;96776.97;5037355;28;20483;-69
2022/11/01 02:03:35;;;;;;;76.65;37.25;;;;;;;7.56;100.00;96785.31;5040185;28;20051;-69
2022/11/01 02:06:10;;;;;;;73.80;34.90;;;;;;;7.81;100.00;96777.88;5040249;28;20115;-67
2022/11/01 02:08:40;;;;;;;83.20;36.00;;;;;;;8.00;100.00;96769.03;5041319;28;20056;-67
2022/11/01 02:11:08;;;;;;;82.80;36.53;;;;;;;8.06;100.00;96768.78;5029167;28;20051;-67
2022/11/01 02:13:34;;;;;;;86.15;33.45;;;;;;;8.15;100.00;96772.13;5043283;28;20072;-68
2022/11/01 02:16:14;;;;;;;73.85;32.45;;;;;;;8.21;100.00;96763.38;5040770;28;20048;-67
2022/11/01 02:18:58;;;;;;;72.18;32.38;;;;;;;8.22;100.00;96769.59;5041860;28;20552;-68
2022/11/01 02:21:45;;;;;;;307.50;42.58;;;;;;;7.67;100.00;96758.38;5037070;28;20436;-68
2022/11/01 02:24:32;;;;;;;320.85;45.38;;;;;;;7.59;100.00;96745.66;5032509;28;20033;-67
2022/11/01 02:27:06;;;;;;;106.10;35.42;;;;;;;7.53;100.00;96749.78;5041356;28;20350;-66
2022/11/01 02:29:55;;;;;;;64.80;34.20;;;;;;;7.62;100.00;96745.00;5041204;28;20136;-67
2022/11/01 02:32:32;;;;;;;59.47;33.42;;;;;;;7.82;100.00;96756.84;5030270;28;20052;-69
2022/11/01 02:35:04;;;;;;;58.60;32.08;;;;;;;7.96;100.00;96765.41;5042079;28;20102;-67
2022/11/01 02:37:59;;;;;;;64.07;35.00;;;;;;;7.88;100.00;96762.84;5039192;28;20059;-67
2022/11/01 02:40:34;;;;;;;63.00;33.00;;;;;;;8.00;100.00;96773.69;5018417;28;20601;-67
2022/11/01 02:43:11;;;;;;;56.42;30.88;;;;;;;8.08;100.00;96771.94;5041631;28;20099;-67
2022/11/01 02:45:41;;;;;;;49.03;29.92;;;;;;;8.05;100.00;96773.44;5039982;28;20391;-68
2022/11/01 02:48:07;;;;;;;58.88;28.77;;;;;;;8.01;100.00;96769.81;5037128;28;20047;-67
2022/11/01 02:50:45;;;;;;;49.15;27.70;;;;;;;8.07;100.00;96782.06;5040909;28;20131;-67
2022/11/01 02:53:11;;;;;;;47.33;28.35;;;;;;;7.99;100.00;96774.81;5039948;28;20128;-68
2022/11/01 02:55:37;;;;;;;44.70;25.92;;;;;;;8.02;100.00;96782.31;5044684;28;20045;-67
2022/11/01 02:58:06;;;;;;;61.25;28.88;;;;;;;7.96;100.00;96772.78;5045354;28;20044;-66
2022/11/01 03:00:35;;;;;;;42.23;26.13;;;;;;;8.02;100.00;96785.06;5047482;28;20098;-67
2022/11/01 03:03:10;;;;;;;42.15;25.17;;;;;;;8.00;100.00;96779.94;5043915;28;20041;-66
2022/11/01 03:05:43;;;;;;;49.00;26.25;;;;;;;7.91;100.00;96776.56;5042708;28;20049;-67
2022/11/01 03:08:15;;;;;;;41.03;26.88;;;;;;;7.78;100.00;96775.81;5037644;28;20044;-66
2022/11/01 03:11:03;;;;;;;56.60;27.00;;;;;;;7.75;100.00;96781.97;5053144;28;20037;-67
2022/11/01 03:13:59;;;;;;;87.53;28.65;;;;;;;7.62;100.00;96789.38;5061578;28;20059;-68
2022/11/01 03:16:50;;;;;;;38.72;26.10;;;;;;;7.63;100.00;96799.16;5040414;28;20052;-67
2022/11/01 03:19:24;;;;;;;60.97;27.80;;;;;;;7.59;100.00;96798.25;5040698;28;20037;-68
2022/11/01 03:22:10;;;;;;;147.85;31.55;;;;;;;7.36;100.00;96794.44;5036977;28;20037;-68
2022/11/01 03:24:44;;;;;;;126.63;33.83;;;;;;;7.28;100.00;96794.22;5037621;28;20511;-68
2022/11/01 03:27:20;;;;;;;196.82;37.58;;;;;;;7.21;100.00;96793.22;5032804;28;20056;-69
2022/11/01 03:30:08;;;;;;;50.80;29.98;;;;;;;7.39;100.00;96810.09;5044974;28;20077;-68
2022/11/01 03:32:42;;;;;;;64.70;33.35;;;;;;;7.49;100.00;96806.09;5041398;28;20174;-69
2022/11/01 03:35:11;;;;;;;122.97;33.15;;;;;;;7.55;100.00;96805.53;5039717;28;20041;-69
2022/11/01 03:37:42;;;;;;;51.63;29.88;;;;;;;7.48;100.00;96816.22;5053299;28;20056;-68
2022/11/01 03:40:11;;;;;;;217.77;36.95;;;;;;;7.18;100.00;96813.75;5060360;28;20045;-68
2022/11/01 03:42:38;;;;;;;234.15;38.92;;;;;;;7.18;100.00;96818.41;5047804;28;20106;-69
2022/11/01 03:45:09;;;;;;;77.95;33.58;;;;;;;7.23;100.00;96824.41;5037670;28;20041;-68
2022/11/01 03:47:35;;;;;;;63.67;34.58;;;;;;;7.35;100.00;96839.19;5043372;28;20490;-69
2022/11/01 03:50:16;;;;;;;75.18;38.47;;;;;;;7.50;100.00;96840.41;5043132;28;20051;-69
2022/11/01 03:52:41;;;;;;;56.97;33.55;;;;;;;7.64;100.00;96846.28;5042221;28;20053;-68
2022/11/01 03:55:16;;;;;;;54.58;31.15;;;;;;;7.75;100.00;96855.56;5039207;28;20482;-67
2022/11/01 03:57:49;;;;;;;54.97;32.95;;;;;;;7.90;100.00;96854.06;5037153;28;20449;-69
2022/11/01 04:00:18;;;;;;;95.95;35.42;;;;;;;7.80;100.00;96852.63;5040464;28;20040;-68
2022/11/01 04:02:43;;;;;;;51.72;30.60;;;;;;;7.90;100.00;96864.19;5044548;28;20493;-69
2022/11/01 04:05:10;;;;;;;54.53;31.85;;;;;;;8.04;100.00;96872.78;5037750;28;20037;-67
2022/11/01 04:07:35;;;;;;;73.63;31.80;;;;;;;8.08;100.00;96875.59;5043457;28;20064;-67
2022/11/01 04:10:01;;;;;;;47.88;29.20;;;;;;;7.99;100.00;96871.06;5042099;28;20045;-69
2022/11/01 04:12:29;;;;;;;162.73;33.78;;;;;;;7.94;100.00;96868.63;5043229;28;20489;-68
2022/11/01 04:20:32;;;;;;;54.60;30.33;;;;;;;8.07;100.00;96880.28;5038265;28;20211;-67
2022/11/01 04:23:02;;;;;;;45.47;28.65;;;;;;;8.18;100.00;96878.66;5043740;28;20073;-66
2022/11/01 04:25:28;;;;;;;65.55;30.00;;;;;;;8.27;100.00;96880.44;5020975;28;20044;-66
2022/11/01 04:27:56;;;;;;;54.38;27.23;;;;;;;8.40;100.00;96874.56;5043579;28;20145;-66
2022/11/01 04:30:23;;;;;;;48.28;25.95;;;;;;;8.43;100.00;96884.03;5038777;28;20682;-68
2022/11/01 04:32:49;;;;;;;68.00;25.58;;;;;;;8.38;100.00;96895.97;5043120;28;20041;-66
2022/11/01 04:35:14;;;;;;;131.48;27.77;;;;;;;8.29;100.00;96892.59;5039710;28;20063;-66
2022/11/01 04:37:39;;;;;;;41.15;26.40;;;;;;;8.23;100.00;96904.91;5043753;28;20111;-67
2022/11/01 04:40:09;;;;;;;42.47;26.33;;;;;;;8.28;100.00;96903.84;5041466;28;20045;-67
2022/11/01 04:42:38;;;;;;;49.85;24.00;;;;;;;8.33;100.00;96907.13;5044260;28;20045;-67
2022/11/01 04:45:04;;;;;;;58.13;23.63;;;;;;;8.38;100.00;96915.06;5039611;28;20041;-65
2022/11/01 04:47:30;;;;;;;54.40;24.58;;;;;;;8.47;100.00;96925.09;5041496;28;20044;-66
2022/11/01 04:49:55;;;;;;;60.65;25.58;;;;;;;8.59;100.00;96922.31;5044108;28;20040;-66
2022/11/01 04:52:21;;;;;;;170.70;28.63;;;;;;;8.45;100.00;96919.97;5039219;28;21040;-66
2022/11/01 04:54:46;;;;;;;146.75;27.90;;;;;;;8.43;100.00;96919.53;5035644;28;20059;-66
2022/11/01 04:57:21;;;;;;;54.70;25.92;;;;;;;8.58;100.00;96917.97;5038492;28;20482;-68
2022/11/01 04:59:48;;;;;;;62.75;25.38;;;;;;;8.64;100.00;96918.53;5044324;28;20496;-66
2022/11/01 05:02:13;;;;;;;40.63;25.33;;;;;;;8.63;100.00;96914.22;5041427;28;20162;-66
2022/11/01 05:04:39;;;;;;;44.72;24.63;;;;;;;8.65;100.00;96920.13;5043020;28;20052;-68
2022/11/01 05:07:04;;;;;;;140.73;26.95;;;;;;;8.66;100.00;96927.97;5035939;28;20041;-65
2022/11/01 05:09:30;;;;;;;49.35;25.17;;;;;;;8.66;100.00;96919.78;5037743;28;20045;-69
2022/11/01 05:11:55;;;;;;;47.08;25.42;;;;;;;8.74;100.00;96924.28;5043692;28;20072;-68
2022/11/01 05:14:20;;;;;;;38.45;22.60;;;;;;;8.71;100.00;96927.69;5039451;28;20094;-68
2022/11/01 05:16:46;;;;;;;43.65;24.65;;;;;;;8.80;100.00;96927.53;5041587;28;20041;-67
2022/11/01 05:19:11;;;;;;;41.78;24.80;;;;;;;8.78;100.00;96932.56;5038597;28;20040;-68
2022/11/01 05:21:37;;;;;;;35.00;23.77;;;;;;;8.84;100.00;96946.75;5038134;28;20045;-68
2022/11/01 05:24:02;;;;;;;34.55;23.05;;;;;;;8.87;100.00;96938.66;5034048;28;20080;-67
2022/11/01 05:26:27;;;;;;;51.30;24.52;;;;;;;8.96;100.00;96949.44;5038719;28;20154;-67
2022/11/01 05:28:53;;;;;;;37.42;23.25;;;;;;;8.97;100.00;96949.09;5043015;28;20048;-69
2022/11/01 05:31:18;;;;;;;39.83;23.90;;;;;;;8.98;100.00;96956.16;5037907;28;20588;-68
2022/11/01 05:33:44;;;;;;;41.72;24.08;;;;;;;8.97;100.00;96954.53;5039087;28;20037;-68
2022/11/01 05:36:09;;;;;;;38.72;24.40;;;;;;;8.95;100.00;96959.56;5034669;28;20094;-68
2022/11/01 05:38:34;;;;;;;37.53;24.58;;;;;;;8.92;100.00;96962.22;5040248;28;20492;-68
2022/11/01 05:41:03;;;;;;;47.38;25.85;;;;;;;8.92;100.00;96963.00;5044210;28;20048;-68
2022/11/01 05:43:29;;;;;;;88.97;27.20;;;;;;;8.95;100.00;96969.72;5041322;28;20045;-69
2022/11/01 05:45:54;;;;;;;42.38;25.77;;;;;;;8.97;100.00;96976.41;5040343;28;20425;-69
2022/11/01 05:48:20;;;;;;;115.28;28.08;;;;;;;8.94;100.00;96977.09;5037314;28;20052;-69
2022/11/01 05:50:45;;;;;;;49.42;26.00;;;;;;;8.96;100.00;96984.94;5041941;28;20081;-69
2022/11/01 05:53:11;;;;;;;46.58;25.13;;;;;;;9.02;100.00;96993.69;5038602;28;20037;-69
2022/11/01 05:55:38;;;;;;;39.88;24.88;;;;;;;8.96;100.00;97001.34;5041482;28;20059;-68
2022/11/01 05:58:05;;;;;;;47.22;25.40;;;;;;;8.94;100.00;97011.81;5048272;28;20055;-67
2022/11/01 06:00:32;;;;;;;36.75;25.27;;;;;;;8.87;100.00;97009.69;5055604;28;20157;-68
2022/11/01 06:02:58;;;;;;;53.10;25.70;;;;;;;8.83;100.00;97008.78;5040542;28;20052;-67
2022/11/01 06:05:24;;;;;;;67.00;27.45;;;;;;;8.76;100.00;97017.56;5030941;28;20486;-69
2022/11/01 06:07:49;;;;;;;68.13;26.40;;;;;;;8.71;100.00;97008.81;5042203;28;20044;-69
2022/11/01 06:10:14;;;;;;;41.85;25.95;;;;;;;8.78;100.00;97011.75;5036403;28;20440;-67
2022/11/01 06:12:40;;;;;;;92.60;27.23;;;;;;;8.83;100.00;97010.75;5040243;28;20068;-68
2022/11/01 06:15:06;;;;;;;39.05;25.00;;;;;;;8.87;100.00;97019.81;5037309;28;20380;-67
2022/11/01 06:17:31;;;;;;;43.10;24.95;;;;;;;8.78;100.00;97014.50;5040177;28;20059;-68
2022/11/01 06:19:57;;;;;;;52.25;25.73;;;;;;;8.71;100.00;97020.53;5043128;28;20134;-68
2022/11/01 06:22:22;;;;;;;40.08;24.90;;;;;;;8.76;100.00;97012.09;5038450;28;20052;-68
2022/11/01 06:24:48;;;;;;;40.20;26.30;;;;;;;8.77;100.00;97019.16;5042344;28;20477;-67
2022/11/01 06:27:14;;;;;;;43.88;26.38;;;;;;;8.88;100.00;97029.63;5035644;28;20128;-69
2022/11/01 06:29:39;;;;;;;39.72;24.65;;;;;;;8.93;100.00;97038.34;5036471;28;20060;-66
2022/11/01 06:32:05;;;;;;;36.67;24.05;;;;;;;8.95;100.00;97040.75;5036796;28;20091;-65
2022/11/01 06:34:30;;;;;;;34.45;23.77;;;;;;;9.03;100.00;97053.44;5041196;28;20474;-68
2022/11/01 06:36:58;;;;;;;35.83;23.52;;;;;;;9.11;100.00;97052.50;5040479;28;20115;-68
2022/11/01 06:39:24;;;;;;;32.63;22.23;;;;;;;9.10;100.00;97058.31;5037778;28;20489;-68
2022/11/01 06:41:50;;;;;;;33.53;22.27;;;;;;;9.17;100.00;97066.72;5041914;28;20943;-68
2022/11/01 06:44:16;;;;;;;31.25;22.00;;;;;;;9.19;100.00;97064.44;5033832;28;20049;-67
2022/11/01 06:46:41;;;;;;;30.23;21.05;;;;;;;9.35;100.00;97067.19;5061105;28;20076;-66
2022/11/01 06:49:06;;;;;;;32.17;21.65;;;;;;;9.21;100.00;97067.59;5046590;28;20106;-67
2022/11/01 06:51:32;;;;;;;31.15;21.95;;;;;;;9.06;100.00;97074.63;5041756;28;20036;-67
2022/11/01 06:53:57;;;;;;;35.90;23.10;;;;;;;8.95;100.00;97073.53;5041649;28;20076;-67
2022/11/01 06:56:22;;;;;;;35.05;24.17;;;;;;;8.91;100.00;97078.88;5035847;28;20568;-68
2022/11/01 06:58:49;;;;;;;36.75;24.83;;;;;;;8.82;100.00;97077.41;5041011;28;20053;-67
2022/11/01 07:01:17;;;;;;;38.88;25.65;;;;;;;8.84;100.00;97078.69;5036028;28;20581;-69
2022/11/01 07:03:43;;;;;;;44.20;27.30;;;;;;;8.76;100.00;97074.91;5041934;28;20045;-67
2022/11/01 07:06:08;;;;;;;47.25;29.40;;;;;;;8.81;100.00;97079.34;5036202;28;20048;-69
2022/11/01 07:08:33;;;;;;;49.35;29.55;;;;;;;8.83;100.00;97084.47;5041007;28;20044;-69
2022/11/01 07:10:59;;;;;;;52.40;32.00;;;;;;;8.84;100.00;97075.94;5041031;28;20117;-66
2022/11/01 07:13:24;;;;;;;56.28;33.45;;;;;;;8.89;100.00;97085.81;5057614;28;20052;-67
2022/11/01 07:15:50;;;;;;;51.88;32.30;;;;;;;8.98;100.00;97078.28;5049936;28;20041;-66
2022/11/01 07:18:15;;;;;;;49.30;31.35;;;;;;;9.06;100.00;97073.81;5036354;28;20048;-68
2022/11/01 07:20:41;;;;;;;52.60;33.92;;;;;;;9.03;100.00;97086.22;5039779;28;20041;-69
2022/11/01 07:23:16;;;;;;;52.90;34.47;;;;;;;9.06;100.00;97073.81;5037142;28;20060;-69
2022/11/01 07:25:42;;;;;;;52.80;33.53;;;;;;;9.06;100.00;97071.09;5032637;28;20038;-69
2022/11/01 07:28:08;;;;;;;49.45;31.83;;;;;;;9.07;100.00;97083.59;5035171;28;20106;-69
2022/11/01 07:30:34;;;;;;;49.78;32.35;;;;;;;9.14;100.00;97079.13;5041449;28;20505;-68
2022/11/01 07:33:01;;;;;;;50.55;32.58;;;;;;;9.23;100.00;97078.97;5030450;28;20137;-69
2022/11/01 07:35:28;;;;;;;47.58;31.42;;;;;;;9.30;100.00;97086.59;5037157;28;20053;-69
2022/11/01 07:37:57;;;;;;;52.88;32.40;;;;;;;9.34;100.00;97079.25;5040825;28;20195;-69
2022/11/01 07:40:26;;;;;;;;;;;;;;;9.42;100.00;97085.72;5039365;28;20585;-68
2022/11/01 07:42:53;;;;;;;47.92;30.88;;;;;;;9.46;100.00;97071.00;5045443;28;19912;-70
2022/11/01 07:45:18;;;;;;;56.10;34.22;;;;;;;9.40;100.00;97075.16;5040477;28;20090;-67
2022/11/01 07:47:44;;;;;;;54.42;33.75;;;;;;;9.56;100.00;97081.44;5040648;28;20041;-67
2022/11/01 07:50:09;;;;;;;48.47;32.10;;;;;;;9.75;100.00;97083.47;5038959;28;20387;-69
2022/11/01 07:52:35;;;;;;;53.22;33.22;;;;;;;9.68;100.00;97083.28;5045282;28;20505;-67
2022/11/01 07:55:00;;;;;;;52.45;32.90;;;;;;;9.71;100.00;97087.28;5044014;28;20612;-67
2022/11/01 07:57:26;;;;;;;53.08;32.90;;;;;;;9.73;100.00;97091.25;5039899;28;20044;-69
2022/11/01 07:59:51;;;;;;;53.60;34.33;;;;;;;9.80;100.00;97100.81;5044831;28;20413;-70
2022/11/01 08:02:16;;;;;;;44.33;29.77;;;;;;;9.91;100.00;97101.84;5048493;28;20143;-68
2022/11/01 08:04:42;;;;;;;50.30;30.92;;;;;;;9.93;100.00;97100.34;5057056;28;20048;-68
2022/11/01 08:07:07;;;;;;;40.00;27.50;;;;;;;10.16;100.00;97098.97;5055819;28;20513;-69
2022/11/01 08:09:32;;;;;;;41.03;28.05;;;;;;;10.52;100.00;97087.72;5044283;28;20110;-69
2022/11/01 08:11:58;;;;;;;38.38;26.10;;;;;;;10.49;100.00;97085.69;5042763;28;20041;-69
2022/11/01 08:14:24;;;;;;;37.42;25.75;;;;;;;10.85;100.00;97094.69;5040030;28;20452;-67
2022/11/01 08:16:54;;;;;;;34.25;25.17;;;;;;;11.24;100.00;97105.69;5034366;28;20067;-67
2022/11/01 08:19:22;;;;;;;27.60;20.48;;;;;;;11.53;100.00;97109.00;5039412;28;20154;-67
2022/11/01 08:21:51;;;;;;;37.72;25.63;;;;;;;11.76;100.00;97113.72;5042276;28;20045;-69
2022/11/01 08:24:16;;;;;;;30.63;20.30;;;;;;;12.00;100.00;97112.59;5049319;28;20505;-67
2022/11/01 08:26:42;;;;;;;26.13;18.38;;;;;;;11.98;100.00;97112.97;5042802;28;20044;-69
2022/11/01 08:29:07;;;;;;;20.95;16.10;;;;;;;11.58;100.00;97110.66;5039431;28;20064;-69
2022/11/01 08:31:33;;;;;;;22.15;15.98;;;;;;;11.90;100.00;97110.44;5040030;28;20047;-67
2022/11/01 08:33:59;;;;;;;20.52;17.00;;;;;;;11.84;100.00;97107.19;5041765;28;20036;-66
2022/11/01 08:36:24;;;;;;;38.03;27.10;;;;;;;11.92;100.00;97105.38;5036718;28;20052;-66
2022/11/01 08:38:50;;;;;;;27.98;22.35;;;;;;;12.13;100.00;97097.53;5043701;28;20045;-67
2022/11/01 08:41:16;;;;;;;33.95;24.65;;;;;;;12.21;100.00;97096.50;5036052;28;20635;-69
2022/11/01 08:43:41;;;;;;;21.58;15.57;;;;;;;12.11;100.00;97091.59;5044752;28;20383;-67
2022/11/01 08:46:09;;;;;;;22.55;15.23;;;;;;;11.82;100.00;97085.59;5037692;28;20075;-68
2022/11/01 08:48:35;;;;;;;28.10;20.27;;;;;;;12.01;100.00;97081.22;5038756;28;20041;-67
2022/11/01 08:51:01;;;;;;;24.08;19.55;;;;;;;12.19;100.00;97090.56;5043985;28;20044;-69
2022/11/01 08:53:26;;;;;;;30.30;19.33;;;;;;;12.24;100.00;97089.47;5039404;28;20063;-68
2022/11/01 08:55:55;;;;;;;21.30;16.20;;;;;;;12.18;100.00;97094.47;5034062;28;20191;-68
2022/11/01 08:58:21;;;;;;;36.22;26.52;;;;;;;12.06;100.00;97089.16;5038534;28;20118;-69
2022/11/01 09:00:46;;;;;;;24.10;16.38;;;;;;;12.15;100.00;97095.19;5042053;28;20084;-69
2022/11/01 09:03:12;;;;;;;27.10;19.73;;;;;;;12.41;100.00;97093.66;5039966;28;20438;-68
2022/11/01 09:05:37;;;;;;;25.30;18.67;;;;;;;12.66;100.00;97095.97;5042463;28;20045;-68
2022/11/01 09:08:03;;;;;;;23.58;15.77;;;;;;;12.83;100.00;97095.44;5040602;28;20051;-66
2022/11/01 09:10:29;;;;;;;26.45;15.25;;;;;;;13.10;100.00;97093.44;5041424;28;20422;-67
2022/11/01 09:12:56;;;;;;;21.55;16.50;;;;;;;13.31;100.00;97087.44;5047081;28;20095;-69
2022/11/01 09:15:21;;;;;;;21.02;14.95;;;;;;;13.52;100.00;97083.34;5041060;28;20144;-68
2022/11/01 09:17:46;;;;;;;18.80;12.07;;;;;;;13.72;100.00;97087.50;5041135;28;20069;-69
2022/11/01 09:20:13;;;;;;;17.80;10.68;;;;;;;13.94;100.00;97087.72;5038411;28;20047;-69
2022/11/01 09:22:39;;;;;;;21.33;9.93;;;;;;;14.13;100.00;97097.69;5043989;28;20036;-70
2022/11/01 09:25:05;;;;;;;21.90;11.00;;;;;;;14.26;100.00;97095.44;5033364;28;20041;-68
2022/11/01 09:27:31;;;;;;;15.15;9.75;;;;;;;14.46;100.00;97101.53;5042952;28;20049;-68
2022/11/01 09:29:57;;;;;;;21.13;10.10;;;;;;;14.65;100.00;97100.50;5043366;28;20118;-67
2022/11/01 09:32:22;;;;;;;18.30;9.73;;;;;;;14.64;100.00;97108.00;5037131;28;20490;-69
2022/11/01 09:34:48;;;;;;;15.98;10.18;;;;;;;14.75;100.00;97102.53;5044296;28;20053;-69
2022/11/01 09:37:14;;;;;;;14.18;9.35;;;;;;;14.78;100.00;97101.75;5033147;28;20052;-68
2022/11/01 09:39:40;;;;;;;15.27;9.15;;;;;;;14.84;100.00;97104.97;5025407;28;20042;-67
2022/11/01 09:42:14;;;;;;;12.57;8.50;;;;;;;14.93;100.00;97108.16;5044230;28;20041;-66
2022/11/01 09:44:45;;;;;;;20.90;9.35;;;;;;;15.00;100.00;97101.88;5045993;28;20127;-67
2022/11/01 09:47:27;;;;;;;12.93;8.40;;;;;;;15.05;100.00;97101.50;5036688;28;20047;-68
2022/11/01 09:50:33;;;;;;;16.35;8.85;;;;;;;15.08;100.00;97100.75;5024632;28;20118;-66
2022/11/01 09:53:02;;;;;;;12.65;7.80;;;;;;;15.00;100.00;97094.41;5041729;28;20045;-68
2022/11/01 09:56:09;;;;;;;14.27;8.27;;;;;;;14.90;100.00;97098.69;5039445;28;20044;-67
2022/11/01 09:59:05;;;;;;;11.75;7.93;;;;;;;14.96;100.00;97104.63;5048620;28;20041;-67
2022/11/01 10:01:39;;;;;;;16.35;7.25;;;;;;;15.19;100.00;97106.31;5043088;28;20049;-67
2022/11/01 10:04:19;;;;;;;14.15;7.20;;;;;;;15.34;100.00;97105.22;5037427;28;20796;-65
2022/11/01 10:07:10;;;;;;;15.90;7.38;;;;;;;15.49;100.00;97103.28;5041546;28;20049;-68
2022/11/01 10:09:49;;;;;;;12.77;7.03;;;;;;;15.62;100.00;97109.25;5023801;28;20047;-67
2022/11/01 10:12:14;;;;;;;10.68;6.05;;;;;;;15.65;100.00;97109.25;5058394;28;20045;-67
2022/11/01 10:14:53;;;;;;;14.73;6.00;;;;;;;15.65;100.00;97109.25;5043689;28;20538;-68
2022/11/01 10:17:47;;;;;;;18.15;6.20;;;;;;;15.81;100.00;97110.88;5041639;28;20295;-68
2022/11/01 10:20:14;;;;;;;11.00;5.97;;;;;;;15.86;100.00;97108.56;5048768;28;20041;-68
2022/11/01 10:22:43;;;;;;;11.85;6.10;;;;;;;15.76;100.00;97112.06;5051767;28;20060;-67
2022/11/01 10:25:18;;;;;;;18.33;5.82;;;;;;;15.71;100.00;97106.13;5039548;28;20037;-67
2022/11/01 10:27:51;;;;;;;9.00;5.40;;;;;;;15.81;100.00;97111.69;5040963;28;20208;-68
2022/11/01 10:30:17;;;;;;;17.35;5.47;;;;;;;15.86;100.00;97110.50;5039818;28;20041;-67
2022/11/01 10:32:51;;;;;;;12.75;5.32;;;;;;;15.84;100.00;97123.91;5022663;28;20045;-66
2022/11/01 10:35:29;;;;;;;11.45;5.43;;;;;;;15.90;100.00;97116.03;5030667;28;20048;-67
2022/11/01 10:38:18;;;;;;;11.48;4.88;;;;;;;16.03;100.00;97117.25;5041159;28;20041;-68
2022/11/01 10:40:54;;;;;;;8.88;4.45;;;;;;;16.16;100.00;97114.91;5041877;28;20560;-68
2022/11/01 10:43:21;;;;;;;8.85;4.38;;;;;;;16.27;100.00;97120.44;5034522;28;20068;-69
2022/11/01 10:45:51;;;;;;;10.25;4.82;;;;;;;16.36;100.00;97115.31;5048714;28;20101;-67
2022/11/01 10:48:33;;;;;;;9.40;4.90;;;;;;;16.43;100.00;97118.06;5053966;28;20052;-67
2022/11/01 10:51:03;;;;;;;9.93;4.45;;;;;;;16.53;100.00;97117.28;5045560;28;20111;-68
2022/11/01 10:53:34;;;;;;;10.20;4.70;;;;;;;16.63;100.00;97122.00;5042381;28;20048;-67
2022/11/01 10:56:07;;;;;;;10.85;5.40;;;;;;;16.41;100.00;97115.69;5042275;28;20075;-67
2022/11/01 10:58:40;;;;;;;10.20;4.50;;;;;;;16.41;100.00;97120.44;5042161;28;20191;-65
2022/11/01 11:01:10;;;;;;;9.52;4.20;;;;;;;16.16;100.00;97114.91;5035644;28;20079;-68
2022/11/01 11:03:37;;;;;;;14.00;5.25;;;;;;;16.02;100.00;97118.44;5039163;28;20053;-69
2022/11/01 11:06:08;;;;;;;12.13;4.95;;;;;;;16.13;100.00;97123.97;5037342;28;20049;-65
2022/11/01 11:08:37;;;;;;;11.02;4.82;;;;;;;16.23;100.00;97120.44;5042345;28;20041;-66
2022/11/01 11:11:06;;;;;;;10.85;4.75;;;;;;;16.32;100.00;97120.84;5040052;28;20522;-66
2022/11/01 11:13:34;;;;;;;10.77;4.03;;;;;;;16.53;100.00;97125.59;5040149;28;20056;-67
2022/11/01 11:16:05;;;;;;;10.23;4.32;;;;;;;16.65;100.00;97124.38;5045824;28;20037;-67
2022/11/01 11:18:37;;;;;;;10.45;4.45;;;;;;;16.69;100.00;97129.91;5045789;28;20120;-68
2022/11/01 11:21:08;;;;;;;10.73;5.35;;;;;;;16.74;100.00;97126.75;5042662;28;20550;-66
2022/11/01 11:23:40;;;;;;;14.05;5.53;;;;;;;16.84;100.00;97122.44;5039488;28;20195;-66
2022/11/01 11:26:09;;;;;;;9.40;5.55;;;;;;;16.79;100.00;97116.06;5045853;28;20041;-65
2022/11/01 11:28:42;;;;;;;17.77;6.22;;;;;;;16.74;100.00;97116.47;5048734;28;20110;-67
2022/11/01 11:31:21;;;;;;;13.38;6.10;;;;;;;16.72;100.00;97110.53;5039543;28;20355;-68